Time;durP1;ratioP1;P1;durP2;ratioP2;P2;SDS_P1;SDS_P2;PMS_P1;PMS_P2;Temp;Humidity;BMP_temperature;BMP_pressure;BME280_temperature;BME280_humidity;BME280_pressure;Samples;Min_cycle;Max_cycle;Signal;HPM_P1;HPM_P2
2023/07/24 00:01:02;;;;;;;4.68;3.22;;;17.20;99.90;;;;;;4977711;28;20117;-65
2023/07/24 00:03:28;;;;;;;4.22;2.97;;;17.20;99.90;;;;;;4983086;28;20038;-63
2023/07/24 00:05:58;;;;;;;5.85;3.22;;;17.20;99.90;;;;;;4981506;28;20395;-64
2023/07/24 00:08:24;;;;;;;3.88;3.10;;;17.20;99.90;;;;;;4959255;28;20068;-59
2023/07/24 00:10:49;;;;;;;3.80;2.95;;;17.20;99.90;;;;;;4987828;28;20026;-64
2023/07/24 00:13:15;;;;;;;4.90;2.90;;;17.20;99.90;;;;;;4988955;28;20099;-64
2023/07/24 00:15:41;;;;;;;4.30;2.97;;;17.30;99.90;;;;;;4987666;28;20093;-63
2023/07/24 00:18:06;;;;;;;9.13;4.07;;;17.30;99.90;;;;;;4986905;28;20383;-63
2023/07/24 00:20:32;;;;;;;5.03;3.35;;;17.20;99.90;;;;;;4981802;28;20035;-63
2023/07/24 00:22:57;;;;;;;6.13;3.20;;;17.30;99.90;;;;;;4979484;28;20094;-65
2023/07/24 00:25:23;;;;;;;4.13;3.08;;;17.20;99.90;;;;;;4976523;28;20026;-63
2023/07/24 00:27:48;;;;;;;4.88;2.80;;;17.30;99.90;;;;;;4982768;28;20042;-63
2023/07/24 00:30:14;;;;;;;4.63;3.30;;;17.30;99.90;;;;;;4984938;28;20027;-64
2023/07/24 00:32:39;;;;;;;3.38;2.67;;;17.30;99.90;;;;;;4982650;28;20122;-63
2023/07/24 00:35:06;;;;;;;7.22;3.33;;;17.30;99.90;;;;;;4979537;28;20467;-63
2023/07/24 00:37:31;;;;;;;4.72;2.90;;;17.20;99.90;;;;;;4980794;28;20495;-63
2023/07/24 00:39:57;;;;;;;3.92;2.90;;;17.20;99.90;;;;;;4984593;28;20030;-64
2023/07/24 00:42:22;;;;;;;7.00;2.90;;;17.20;99.90;;;;;;4947051;28;20034;-63
2023/07/24 00:44:48;;;;;;;6.22;2.92;;;17.20;99.90;;;;;;4942758;28;20478;-63
2023/07/24 00:47:14;;;;;;;4.40;2.97;;;17.10;99.90;;;;;;4983056;28;20040;-64
2023/07/24 00:49:40;;;;;;;4.50;2.83;;;17.10;99.90;;;;;;4966872;28;20030;-62
2023/07/24 00:52:06;;;;;;;4.25;2.80;;;17.10;99.90;;;;;;4984484;28;20046;-65
2023/07/24 00:54:33;;;;;;;7.47;3.30;;;17.00;99.90;;;;;;4982957;28;20026;-64
2023/07/24 00:57:00;;;;;;;9.93;3.45;;;17.10;99.90;;;;;;4986549;28;20110;-64
2023/07/24 00:59:25;;;;;;;4.32;3.30;;;17.10;99.90;;;;;;4987288;28;20050;-63
2023/07/24 01:01:51;;;;;;;7.93;3.40;;;17.10;99.90;;;;;;4989748;28;20030;-64
2023/07/24 01:04:18;;;;;;;7.68;2.55;;;17.20;99.90;;;;;;4981160;28;20034;-66
2023/07/24 01:06:43;;;;;;;7.90;3.10;;;17.20;99.90;;;;;;4961136;28;20389;-63
2023/07/24 01:09:10;;;;;;;3.60;2.63;;;17.10;99.90;;;;;;4973923;28;20035;-63
2023/07/24 01:11:40;;;;;;;6.78;2.67;;;17.20;99.90;;;;;;4976563;28;20025;-64
2023/07/24 01:14:26;;;;;;;7.97;3.88;;;17.20;99.90;;;;;;4974813;28;20089;-62
2023/07/24 01:16:55;;;;;;;5.80;3.00;;;17.20;99.90;;;;;;4980543;28;20073;-64
2023/07/24 01:19:33;;;;;;;7.10;3.35;;;17.20;99.90;;;;;;4977622;28;20717;-61
2023/07/24 01:22:19;;;;;;;4.97;2.80;;;17.20;99.90;;;;;;4979593;28;20046;-63
2023/07/24 01:24:56;;;;;;;6.38;3.35;;;17.10;99.90;;;;;;4974466;28;20039;-65
2023/07/24 01:27:25;;;;;;;6.72;3.15;;;17.20;99.90;;;;;;4976871;28;20034;-63
2023/07/24 01:29:50;;;;;;;5.30;3.03;;;17.10;99.90;;;;;;4969868;28;20089;-64
2023/07/24 01:32:16;;;;;;;3.35;2.80;;;17.10;99.90;;;;;;4975544;28;20034;-63
2023/07/24 01:34:42;;;;;;;3.70;2.58;;;17.10;99.90;;;;;;4978471;28;20038;-64
2023/07/24 01:37:10;;;;;;;5.20;3.13;;;17.00;99.90;;;;;;4977799;28;20022;-63
2023/07/24 01:39:37;;;;;;;6.45;3.33;;;17.00;99.90;;;;;;4974146;28;20022;-64
2023/07/24 01:42:03;;;;;;;7.03;2.85;;;17.00;99.90;;;;;;4959069;28;20027;-63
2023/07/24 01:44:28;;;;;;;9.10;2.95;;;17.00;99.90;;;;;;4948396;28;20063;-63
2023/07/24 01:46:54;;;;;;;5.05;3.13;;;17.00;99.90;;;;;;4980219;28;20053;-64
2023/07/24 01:49:19;;;;;;;6.00;3.63;;;17.00;99.90;;;;;;4981623;28;20034;-61
2023/07/24 01:51:45;;;;;;;4.20;2.63;;;17.00;99.90;;;;;;4981218;28;20517;-63
2023/07/24 01:54:10;;;;;;;4.20;2.85;;;17.00;99.90;;;;;;4976571;28;20034;-64
2023/07/24 01:56:37;;;;;;;5.22;3.70;;;17.00;99.90;;;;;;4975213;28;20086;-64
2023/07/24 01:59:03;;;;;;;5.70;3.80;;;17.10;99.90;;;;;;4976160;28;20114;-65
2023/07/24 02:01:28;;;;;;;5.25;2.85;;;17.10;99.90;;;;;;4966626;28;20109;-64
2023/07/24 02:03:54;;;;;;;4.90;3.17;;;17.00;99.90;;;;;;4964003;28;20441;-66
2023/07/24 02:06:19;;;;;;;5.25;3.45;;;17.10;99.90;;;;;;4987532;28;20068;-64
2023/07/24 02:08:48;;;;;;;4.32;3.28;;;17.10;99.90;;;;;;4989433;28;20582;-65
2023/07/24 02:11:15;;;;;;;9.40;3.03;;;17.10;99.90;;;;;;4969209;28;20436;-63
2023/07/24 02:13:44;;;;;;;5.22;3.50;;;17.20;99.90;;;;;;4988103;28;20459;-64
2023/07/24 02:16:10;;;;;;;5.75;3.28;;;17.10;99.90;;;;;;4987141;28;20023;-64
2023/07/24 02:18:37;;;;;;;7.57;3.33;;;17.20;99.90;;;;;;4991178;28;20042;-64
2023/07/24 02:21:02;;;;;;;8.60;3.67;;;17.10;99.90;;;;;;4986900;28;20094;-64
2023/07/24 02:23:28;;;;;;;8.82;3.40;;;17.20;99.90;;;;;;4988037;28;20208;-65
2023/07/24 02:25:53;;;;;;;7.10;3.05;;;17.20;99.90;;;;;;4985262;28;20034;-64
2023/07/24 02:28:19;;;;;;;9.35;3.90;;;17.20;99.90;;;;;;4983954;28;20042;-64
2023/07/24 02:30:47;;;;;;;6.07;2.97;;;17.20;99.90;;;;;;4978438;28;20435;-63
2023/07/24 02:33:12;;;;;;;7.07;3.72;;;17.20;99.90;;;;;;4982796;28;20100;-64
2023/07/24 02:35:42;;;;;;;5.07;3.35;;;17.20;99.90;;;;;;4993130;28;20687;-63
2023/07/24 02:38:08;;;;;;;6.38;3.03;;;17.20;99.90;;;;;;4988680;28;20069;-64
2023/07/24 02:40:35;;;;;;;5.80;3.30;;;17.10;99.90;;;;;;4992953;28;20506;-63
2023/07/24 02:43:00;;;;;;;4.63;3.17;;;17.10;99.90;;;;;;4965921;28;20141;-64
2023/07/24 02:45:26;;;;;;;5.80;3.65;;;17.10;99.90;;;;;;4988988;28;20168;-63
2023/07/24 02:47:51;;;;;;;5.32;4.25;;;17.10;99.90;;;;;;4986856;28;20484;-63
2023/07/24 02:50:17;;;;;;;7.15;3.47;;;17.20;99.90;;;;;;4989948;28;20045;-65
2023/07/24 02:52:42;;;;;;;4.88;3.50;;;17.20;99.90;;;;;;4988111;28;21767;-64
2023/07/24 02:55:08;;;;;;;5.00;2.97;;;17.10;99.90;;;;;;4988635;28;20036;-64
2023/07/24 02:57:34;;;;;;;5.38;3.25;;;17.10;99.90;;;;;;4990186;28;20046;-67
2023/07/24 02:59:59;;;;;;;6.82;3.58;;;17.10;99.90;;;;;;4988308;28;20388;-64
2023/07/24 03:02:25;;;;;;;5.75;3.13;;;17.10;99.90;;;;;;4994948;28;20062;-64
2023/07/24 03:04:50;;;;;;;4.63;3.50;;;17.10;99.90;;;;;;4991276;28;20030;-64
2023/07/24 03:07:16;;;;;;;6.25;3.20;;;17.00;99.90;;;;;;4974685;28;20037;-64
2023/07/24 03:09:42;;;;;;;5.07;3.13;;;17.00;99.90;;;;;;4970221;28;20037;-64
2023/07/24 03:12:07;;;;;;;12.30;4.20;;;17.00;99.90;;;;;;4968655;28;20378;-64
2023/07/24 03:14:33;;;;;;;7.50;3.78;;;17.00;99.90;;;;;;4971973;28;20368;-64
2023/07/24 03:16:59;;;;;;;3.95;3.10;;;17.00;99.90;;;;;;4990818;28;20109;-65
2023/07/24 03:19:24;;;;;;;7.03;3.60;;;16.90;99.90;;;;;;4989711;28;20030;-64
2023/07/24 03:21:50;;;;;;;6.32;3.25;;;16.90;99.90;;;;;;4989416;28;20041;-63
2023/07/24 03:24:16;;;;;;;7.18;3.58;;;16.90;99.90;;;;;;4972580;28;20121;-64
2023/07/24 03:26:42;;;;;;;4.38;2.88;;;16.80;99.90;;;;;;4972825;28;20057;-64
2023/07/24 03:29:07;;;;;;;3.97;3.22;;;16.70;99.90;;;;;;4985701;28;20488;-64
2023/07/24 03:31:33;;;;;;;7.35;3.47;;;16.70;99.90;;;;;;4965321;28;20054;-62
2023/07/24 03:33:59;;;;;;;4.90;3.28;;;16.60;99.90;;;;;;4971723;28;20027;-63
2023/07/24 03:36:24;;;;;;;4.80;3.05;;;16.50;99.90;;;;;;4963790;28;20097;-63
2023/07/24 03:38:50;;;;;;;10.15;4.63;;;16.50;99.90;;;;;;4982934;28;20122;-64
2023/07/24 03:41:15;;;;;;;8.65;3.45;;;16.40;99.90;;;;;;4990213;28;20060;-64
2023/07/24 03:43:41;;;;;;;14.27;3.38;;;16.40;99.90;;;;;;4966992;28;20507;-63
2023/07/24 03:46:07;;;;;;;5.50;2.95;;;16.40;99.90;;;;;;4990646;28;20384;-64
2023/07/24 03:48:32;;;;;;;6.03;4.07;;;16.30;99.90;;;;;;4989855;28;20076;-63
2023/07/24 03:50:59;;;;;;;14.85;4.30;;;16.30;99.90;;;;;;4989079;28;20026;-64
2023/07/24 03:53:25;;;;;;;5.05;3.00;;;16.30;99.90;;;;;;4985500;28;20105;-63
2023/07/24 03:55:51;;;;;;;9.43;3.72;;;16.30;99.90;;;;;;4993379;28;20096;-64
2023/07/24 03:58:16;;;;;;;6.10;3.70;;;16.30;99.90;;;;;;4987370;28;20492;-65
2023/07/24 04:00:42;;;;;;;6.53;3.90;;;16.30;99.90;;;;;;4984318;28;20030;-65
2023/07/24 04:03:08;;;;;;;7.50;3.60;;;16.30;99.90;;;;;;4981695;28;20039;-65
2023/07/24 04:05:34;;;;;;;7.50;4.07;;;16.40;99.90;;;;;;4988763;28;20028;-64
2023/07/24 04:08:00;;;;;;;9.25;3.63;;;16.40;99.90;;;;;;4982393;28;20040;-64
2023/07/24 04:10:26;;;;;;;9.18;4.03;;;16.50;99.90;;;;;;4993711;28;20427;-65
2023/07/24 04:12:51;;;;;;;6.95;3.60;;;16.50;99.90;;;;;;4985670;28;20035;-64
2023/07/24 04:15:17;;;;;;;6.88;3.50;;;16.60;99.90;;;;;;4992320;28;20050;-65
2023/07/24 04:17:43;;;;;;;7.40;3.63;;;16.60;99.90;;;;;;4984401;28;20476;-64
2023/07/24 04:20:09;;;;;;;7.40;4.07;;;16.60;99.90;;;;;;4986871;28;20031;-64
2023/07/24 04:22:35;;;;;;;5.60;3.80;;;16.70;99.90;;;;;;4984755;28;20093;-63
2023/07/24 04:25:00;;;;;;;6.30;3.72;;;16.70;99.90;;;;;;4987665;28;20500;-63
2023/07/24 04:27:26;;;;;;;11.88;4.10;;;16.80;99.90;;;;;;4988843;28;20399;-64
2023/07/24 04:29:51;;;;;;;10.80;4.25;;;16.90;99.90;;;;;;4979927;28;20377;-63
2023/07/24 04:32:17;;;;;;;6.88;4.00;;;16.90;99.90;;;;;;4989209;28;20065;-64
2023/07/24 04:34:42;;;;;;;8.40;4.20;;;16.90;99.90;;;;;;4987374;28;20030;-64
2023/07/24 04:37:08;;;;;;;6.35;3.63;;;16.90;99.90;;;;;;4982545;28;20108;-63
2023/07/24 04:39:34;;;;;;;5.43;3.50;;;16.90;99.90;;;;;;4953334;28;20042;-63
2023/07/24 04:41:59;;;;;;;15.38;3.72;;;17.00;99.90;;;;;;4987535;28;20109;-64
2023/07/24 04:44:25;;;;;;;9.55;3.30;;;17.10;99.90;;;;;;4970639;28;20042;-64
2023/07/24 04:46:51;;;;;;;10.40;4.30;;;17.10;99.90;;;;;;4963056;28;20134;-64
2023/07/24 04:49:16;;;;;;;5.65;3.47;;;17.20;99.90;;;;;;4988395;28;20057;-64
2023/07/24 04:51:42;;;;;;;6.32;3.60;;;17.20;99.90;;;;;;4984965;28;20157;-62
2023/07/24 04:54:07;;;;;;;7.65;4.20;;;17.30;99.90;;;;;;4987901;28;20498;-64
2023/07/24 04:56:33;;;;;;;4.97;3.35;;;17.30;99.90;;;;;;4987184;28;20033;-64
2023/07/24 04:58:58;;;;;;;6.78;4.00;;;17.40;99.90;;;;;;4989279;28;20543;-63
2023/07/24 05:01:24;;;;;;;11.55;3.55;;;17.40;99.90;;;;;;4968879;28;20038;-64
2023/07/24 05:03:50;;;;;;;6.13;3.75;;;17.50;99.90;;;;;;4983713;28;20058;-66
2023/07/24 05:06:15;;;;;;;7.55;3.47;;;17.60;99.90;;;;;;4986117;28;20030;-64
2023/07/24 05:08:41;;;;;;;5.88;3.75;;;17.60;99.90;;;;;;4983757;28;20083;-63
2023/07/24 05:11:06;;;;;;;7.63;3.60;;;17.60;99.90;;;;;;4982256;28;20077;-63
2023/07/24 05:13:32;;;;;;;7.22;3.80;;;17.70;99.90;;;;;;4969043;28;20022;-62
2023/07/24 05:15:57;;;;;;;6.97;3.95;;;17.70;99.90;;;;;;4969356;28;20031;-63
2023/07/24 05:18:23;;;;;;;7.03;3.63;;;17.70;99.90;;;;;;4986402;28;20074;-63
2023/07/24 05:20:51;;;;;;;8.43;3.65;;;17.80;99.90;;;;;;4985191;28;20050;-63
2023/07/24 05:23:16;;;;;;;5.30;3.38;;;18.10;99.90;;;;;;4985982;28;20030;-63
2023/07/24 05:25:42;;;;;;;6.65;2.95;;;18.40;99.90;;;;;;4980818;28;20047;-63
2023/07/24 05:28:08;;;;;;;8.07;3.58;;;18.60;99.90;;;;;;4983974;28;20038;-66
2023/07/24 05:30:34;;;;;;;5.97;3.20;;;18.90;99.90;;;;;;4987112;28;20547;-64
2023/07/24 05:33:00;;;;;;;4.90;2.90;;;19.10;99.90;;;;;;4989337;28;20030;-63
2023/07/24 05:35:25;;;;;;;8.27;3.15;;;19.10;99.90;;;;;;4993038;28;20030;-64
2023/07/24 05:37:51;;;;;;;5.80;3.15;;;19.10;99.90;;;;;;4993665;28;20030;-64
2023/07/24 05:40:16;;;;;;;4.85;2.70;;;19.00;99.90;;;;;;4991220;28;20492;-63
2023/07/24 05:42:43;;;;;;;6.75;3.42;;;18.90;99.90;;;;;;4999406;28;20714;-64
2023/07/24 05:45:10;;;;;;;9.18;3.25;;;19.00;99.90;;;;;;4975579;28;20066;-63
2023/07/24 05:47:37;;;;;;;7.50;4.00;;;19.00;99.90;;;;;;4973407;28;20492;-63
2023/07/24 05:50:03;;;;;;;5.90;2.90;;;19.10;99.90;;;;;;4965879;28;20054;-63
2023/07/24 05:52:28;;;;;;;5.47;2.95;;;19.30;99.90;;;;;;4979409;28;20030;-63
2023/07/24 05:54:54;;;;;;;4.47;2.90;;;19.50;99.90;;;;;;4981221;28;20061;-62
2023/07/24 05:57:20;;;;;;;5.97;3.08;;;19.60;99.90;;;;;;4984508;28;20377;-62
2023/07/24 05:59:45;;;;;;;7.60;3.17;;;21.10;99.90;;;;;;4982062;28;20767;-62
2023/07/24 06:02:11;;;;;;;5.85;3.28;;;22.40;99.90;;;;;;4986117;28;20106;-64
2023/07/24 06:04:36;;;;;;;5.00;2.58;;;23.60;99.90;;;;;;4968913;28;20058;-64
2023/07/24 06:07:02;;;;;;;5.32;2.70;;;24.00;99.90;;;;;;4987272;28;20027;-63
2023/07/24 06:09:28;;;;;;;4.18;3.17;;;23.60;99.90;;;;;;4986512;28;20030;-64
2023/07/24 06:11:53;;;;;;;5.30;2.55;;;22.70;99.90;;;;;;4990588;28;20031;-64
2023/07/24 06:14:19;;;;;;;4.55;2.90;;;22.00;99.90;;;;;;4980226;28;20058;-63
2023/07/24 06:16:45;;;;;;;7.03;2.97;;;21.50;99.90;;;;;;4982521;28;20064;-63
2023/07/24 06:19:10;;;;;;;4.93;2.90;;;21.20;99.90;;;;;;4967066;28;20491;-62
2023/07/24 06:21:36;;;;;;;5.82;2.88;;;21.00;99.90;;;;;;4984069;28;20034;-63
2023/07/24 06:24:02;;;;;;;7.85;4.40;;;21.00;99.90;;;;;;4978070;28;20117;-63
2023/07/24 06:26:27;;;;;;;10.07;3.28;;;21.20;99.90;;;;;;4986332;28;20039;-63
2023/07/24 06:28:53;;;;;;;4.80;2.83;;;21.60;99.90;;;;;;4977966;28;20053;-63
2023/07/24 06:31:18;;;;;;;7.32;3.17;;;21.50;99.90;;;;;;4961811;28;20038;-63
2023/07/24 06:33:44;;;;;;;4.15;2.72;;;21.40;99.90;;;;;;4978903;28;20080;-63
2023/07/24 06:36:10;;;;;;;5.07;3.13;;;21.50;99.90;;;;;;4979490;28;20052;-61
2023/07/24 06:38:36;;;;;;;4.80;2.78;;;21.80;99.90;;;;;;4979908;28;20080;-62
2023/07/24 06:41:02;;;;;;;4.40;2.35;;;22.00;99.90;;;;;;4978302;28;20027;-63
2023/07/24 06:43:28;;;;;;;6.68;2.75;;;22.00;99.90;;;;;;4984395;28;20113;-63
2023/07/24 06:45:54;;;;;;;7.32;2.97;;;21.90;99.90;;;;;;4963827;28;20163;-63
2023/07/24 06:48:20;;;;;;;4.78;2.78;;;21.60;99.90;;;;;;4965344;28;20058;-62
2023/07/24 06:50:45;;;;;;;4.43;2.88;;;21.40;99.90;;;;;;4985483;28;20028;-63
2023/07/24 06:53:11;;;;;;;4.07;2.75;;;21.20;99.90;;;;;;4984053;28;20590;-63
2023/07/24 06:55:36;;;;;;;4.13;2.70;;;20.80;99.90;;;;;;4990339;28;20018;-62
2023/07/24 06:58:02;;;;;;;4.32;2.67;;;20.50;99.90;;;;;;4991475;28;20031;-62
2023/07/24 07:00:28;;;;;;;6.43;2.72;;;20.30;99.90;;;;;;4990948;28;20033;-63
2023/07/24 07:02:53;;;;;;;5.40;3.35;;;20.10;99.90;;;;;;4978890;28;20034;-63
2023/07/24 07:05:19;;;;;;;5.55;3.28;;;19.90;99.90;;;;;;4989197;28;20097;-62
2023/07/24 07:07:45;;;;;;;5.00;3.30;;;19.80;99.90;;;;;;4986183;28;20034;-64
2023/07/24 07:10:10;;;;;;;4.85;2.92;;;19.80;99.90;;;;;;4983808;28;20069;-64
2023/07/24 07:12:36;;;;;;;5.85;3.22;;;19.80;99.90;;;;;;4980893;28;20026;-62
2023/07/24 07:15:01;;;;;;;8.02;3.28;;;19.90;99.90;;;;;;4964017;28;20523;-65
2023/07/24 07:17:27;;;;;;;6.30;2.70;;;20.20;99.90;;;;;;4988092;28;20034;-63
2023/07/24 07:19:53;;;;;;;6.30;3.40;;;20.50;99.90;;;;;;4983577;28;20094;-64
2023/07/24 07:22:18;;;;;;;6.53;2.72;;;20.80;99.90;;;;;;4978924;28;20050;-63
2023/07/24 07:24:46;;;;;;;6.28;2.78;;;21.20;99.90;;;;;;4988934;28;20034;-64
2023/07/24 07:27:11;;;;;;;6.53;3.25;;;21.40;99.90;;;;;;4989436;28;20034;-63
2023/07/24 07:29:37;;;;;;;5.82;2.80;;;21.70;99.90;;;;;;4989636;28;20057;-62
2023/07/24 07:32:03;;;;;;;4.70;3.10;;;22.00;99.90;;;;;;4981763;28;20404;-64
2023/07/24 07:34:28;;;;;;;4.15;2.33;;;22.30;99.90;;;;;;4986390;28;20101;-63
2023/07/24 07:36:54;;;;;;;3.75;2.65;;;22.50;99.90;;;;;;4988988;28;20026;-64
2023/07/24 07:39:19;;;;;;;6.22;2.60;;;22.50;99.90;;;;;;4985109;28;20501;-63
2023/07/24 07:41:45;;;;;;;5.45;3.00;;;22.80;99.90;;;;;;4988679;28;20406;-62
2023/07/24 07:44:11;;;;;;;6.20;2.50;;;23.20;99.90;;;;;;4990113;28;20152;-63
2023/07/24 07:46:36;;;;;;;5.40;2.72;;;23.30;99.90;;;;;;4968731;28;20042;-65
2023/07/24 07:49:02;;;;;;;3.75;2.50;;;23.00;99.90;;;;;;4983253;28;20026;-64
2023/07/24 07:51:27;;;;;;;5.70;3.20;;;22.80;99.90;;;;;;4978979;28;20065;-64
2023/07/24 07:53:53;;;;;;;6.80;2.50;;;22.60;99.90;;;;;;4988381;28;20015;-64
2023/07/24 07:56:18;;;;;;;4.13;2.53;;;22.40;99.90;;;;;;4980399;28;20038;-63
2023/07/24 07:58:44;;;;;;;5.72;2.33;;;22.20;99.90;;;;;;4977425;28;20035;-65
2023/07/24 08:01:09;;;;;;;5.15;2.40;;;22.00;99.90;;;;;;4979891;28;20101;-65
2023/07/24 08:03:35;;;;;;;3.63;2.33;;;22.00;99.90;;;;;;4976126;28;20518;-64
2023/07/24 08:06:01;;;;;;;4.80;2.75;;;21.80;99.90;;;;;;4980213;28;20041;-61
2023/07/24 08:08:26;;;;;;;4.20;2.20;;;21.60;99.90;;;;;;4978789;28;20034;-66
2023/07/24 08:10:52;;;;;;;5.20;2.83;;;21.60;99.90;;;;;;4981346;28;20044;-63
2023/07/24 08:13:18;;;;;;;3.53;2.17;;;21.90;99.90;;;;;;4982302;28;20034;-65
2023/07/24 08:15:43;;;;;;;4.10;2.70;;;22.70;99.90;;;;;;4980760;28;20038;-63
2023/07/24 08:18:09;;;;;;;6.65;2.40;;;23.40;99.90;;;;;;4983314;28;20021;-64
2023/07/24 08:20:38;;;;;;;4.13;2.08;;;24.30;99.90;;;;;;4979814;28;20035;-65
2023/07/24 08:23:04;;;;;;;5.55;2.60;;;24.80;99.90;;;;;;4980450;28;20495;-64
2023/07/24 08:25:29;;;;;;;5.07;2.60;;;25.70;99.90;;;;;;4983020;28;20083;-64
2023/07/24 08:27:55;;;;;;;6.43;2.63;;;26.30;98.70;;;;;;4977386;28;20037;-63
2023/07/24 08:30:21;;;;;;;4.65;2.33;;;26.40;98.90;;;;;;4974440;28;20046;-64
2023/07/24 08:32:46;;;;;;;4.30;2.88;;;25.60;98.40;;;;;;4982298;28;20040;-63
2023/07/24 08:35:12;;;;;;;3.55;2.30;;;24.70;99.60;;;;;;4979122;28;20034;-63
2023/07/24 08:37:44;;;;;;;4.28;2.80;;;24.00;99.90;;;;;;4974194;28;20046;-62
2023/07/24 08:40:10;;;;;;;3.60;2.45;;;23.50;99.90;;;;;;4979487;28;20050;-64
2023/07/24 08:42:40;;;;;;;4.03;2.70;;;23.30;99.90;;;;;;4985581;28;20118;-64
2023/07/24 08:45:11;;;;;;;4.68;2.50;;;23.50;99.90;;;;;;4958747;28;20318;-64
2023/07/24 08:47:40;;;;;;;6.78;2.50;;;23.80;99.90;;;;;;4983760;28;20482;-65
2023/07/24 08:50:09;;;;;;;4.80;2.70;;;24.20;99.90;;;;;;4954948;28;20047;-64
2023/07/24 08:52:35;;;;;;;6.88;3.13;;;24.60;99.90;;;;;;4960209;28;20031;-63
2023/07/24 08:55:02;;;;;;;8.73;3.10;;;25.00;99.90;;;;;;4975605;28;20082;-65
2023/07/24 08:57:28;;;;;;;6.07;2.40;;;25.40;99.00;;;;;;4985440;28;20538;-64
2023/07/24 08:59:54;;;;;;;7.03;2.40;;;25.60;99.00;;;;;;4976677;28;20030;-64
2023/07/24 09:02:19;;;;;;;9.30;2.65;;;26.10;98.80;;;;;;4977779;28;20031;-63
2023/07/24 09:04:45;;;;;;;3.58;2.42;;;26.10;96.30;;;;;;4978089;28;20030;-65
2023/07/24 09:07:11;;;;;;;6.07;2.22;;;25.40;96.30;;;;;;4982725;28;20031;-63
2023/07/24 09:09:36;;;;;;;3.72;2.70;;;24.70;97.50;;;;;;4980854;28;20026;-65
2023/07/24 09:12:02;;;;;;;2.78;2.10;;;24.40;98.80;;;;;;4967878;28;20361;-64
2023/07/24 09:14:31;;;;;;;4.63;2.15;;;24.10;98.90;;;;;;4984466;28;20101;-62
2023/07/24 09:17:08;;;;;;;3.97;2.65;;;23.90;99.60;;;;;;4982914;28;20022;-64
2023/07/24 09:19:34;;;;;;;3.88;2.30;;;24.10;99.80;;;;;;4986093;28;20061;-63
2023/07/24 09:22:14;;;;;;;3.10;2.17;;;24.10;99.60;;;;;;4989243;28;20077;-65
2023/07/24 09:24:52;;;;;;;4.18;2.30;;;24.30;99.90;;;;;;4986675;28;20034;-62
2023/07/24 09:27:18;;;;;;;5.20;2.30;;;24.10;99.30;;;;;;4982320;28;20136;-64
2023/07/24 09:29:44;;;;;;;2.97;1.90;;;24.10;99.90;;;;;;4991710;28;20030;-64
2023/07/24 09:32:19;;;;;;;4.07;2.60;;;24.20;99.90;;;;;;4992440;28;20018;-62
2023/07/24 09:34:45;;;;;;;3.25;2.33;;;24.30;98.50;;;;;;4992985;28;20387;-63
2023/07/24 09:37:11;;;;;;;4.13;2.47;;;24.30;98.20;;;;;;4987635;28;20093;-64
2023/07/24 09:39:36;;;;;;;5.88;2.60;;;24.30;99.20;;;;;;4975764;28;20033;-65
2023/07/24 09:42:05;;;;;;;4.63;2.33;;;24.30;99.60;;;;;;4992290;28;20030;-64
2023/07/24 09:44:32;;;;;;;4.20;2.33;;;24.10;99.60;;;;;;4991632;28;20111;-63
2023/07/24 09:46:58;;;;;;;6.32;2.13;;;24.10;99.30;;;;;;4969640;28;20588;-63
2023/07/24 09:49:24;;;;;;;5.22;2.85;;;24.10;99.90;;;;;;4970307;28;20058;-64
2023/07/24 09:51:55;;;;;;;3.30;2.20;;;24.10;99.80;;;;;;4974117;28;20522;-59
2023/07/24 09:54:27;;;;;;;3.22;2.47;;;23.80;99.20;;;;;;4980548;28;20121;-65
2023/07/24 09:56:55;;;;;;;4.50;2.60;;;23.60;99.90;;;;;;4965766;28;20472;-64
2023/07/24 09:59:22;;;;;;;3.90;2.38;;;23.50;99.90;;;;;;4988910;28;20058;-65
2023/07/24 10:01:48;;;;;;;4.68;2.20;;;23.50;99.40;;;;;;4984792;28;20029;-62
2023/07/24 10:04:15;;;;;;;4.43;2.45;;;23.50;99.90;;;;;;4982662;28;20109;-63
2023/07/24 10:06:43;;;;;;;4.65;2.08;;;23.60;99.90;;;;;;4985079;28;20026;-61
2023/07/24 10:09:09;;;;;;;3.38;2.00;;;23.50;99.90;;;;;;4978046;28;20451;-65
2023/07/24 10:11:35;;;;;;;3.92;2.60;;;23.50;99.90;;;;;;4985215;28;20022;-64
2023/07/24 10:14:01;;;;;;;3.60;2.30;;;23.30;99.90;;;;;;4985069;28;20418;-62
2023/07/24 10:16:27;;;;;;;5.38;2.45;;;23.10;99.90;;;;;;4990708;28;20122;-65
2023/07/24 10:18:52;;;;;;;4.60;2.47;;;23.10;99.90;;;;;;4988093;28;20117;-64
2023/07/24 10:21:25;;;;;;;3.67;2.30;;;23.00;99.90;;;;;;4983764;28;20026;-65
2023/07/24 10:23:51;;;;;;;3.67;2.30;;;23.10;99.90;;;;;;4996691;28;20030;-64
2023/07/24 10:26:23;;;;;;;4.53;2.03;;;23.40;99.90;;;;;;4989228;28;20049;-64
2023/07/24 10:28:50;;;;;;;3.75;2.03;;;23.70;99.90;;;;;;4989658;28;20077;-64
2023/07/24 10:31:26;;;;;;;2.97;2.05;;;23.80;99.90;;;;;;4988578;28;20061;-63
2023/07/24 10:33:52;;;;;;;4.40;1.90;;;24.10;99.90;;;;;;4983127;28;20034;-63
2023/07/24 10:36:22;;;;;;;3.33;2.05;;;24.60;99.10;;;;;;4967874;28;20101;-64
2023/07/24 10:38:53;;;;;;;3.55;2.20;;;25.30;97.30;;;;;;4983267;28;20034;-63
2023/07/24 10:41:18;;;;;;;2.90;1.95;;;25.70;96.40;;;;;;4971390;28;20396;-64
2023/07/24 10:43:49;;;;;;;3.92;2.13;;;26.20;97.80;;;;;;4981758;28;20033;-64
2023/07/24 10:46:17;;;;;;;3.00;2.03;;;26.30;93.40;;;;;;4966839;28;20122;-64
2023/07/24 10:48:50;;;;;;;4.00;2.17;;;26.40;95.60;;;;;;4986371;28;20110;-64
2023/07/24 10:51:16;;;;;;;5.30;2.70;;;26.20;94.30;;;;;;4987924;28;20066;-64
2023/07/24 10:53:46;;;;;;;2.63;1.85;;;26.40;94.00;;;;;;4987660;28;20105;-64
2023/07/24 10:56:12;;;;;;;4.28;2.63;;;26.50;94.70;;;;;;4981594;28;20061;-64
2023/07/24 10:58:38;;;;;;;5.15;2.65;;;26.70;94.00;;;;;;4968524;28;20042;-63
2023/07/24 11:01:06;;;;;;;3.72;2.53;;;26.70;94.40;;;;;;4988368;28;20042;-65
2023/07/24 11:03:31;;;;;;;3.53;2.00;;;26.80;94.10;;;;;;4984033;28;20038;-64
2023/07/24 11:05:58;;;;;;;4.50;2.10;;;26.50;94.30;;;;;;4983592;28;20026;-64
2023/07/24 11:08:24;;;;;;;2.88;1.60;;;26.40;94.60;;;;;;4983319;28;20038;-64
2023/07/24 11:10:52;;;;;;;3.10;2.08;;;25.90;94.20;;;;;;4982615;28;20419;-65
2023/07/24 11:13:20;;;;;;;5.03;2.17;;;25.80;94.10;;;;;;4984902;28;20034;-66
2023/07/24 11:15:48;;;;;;;2.65;1.73;;;25.00;95.70;;;;;;4988976;28;20022;-63
2023/07/24 11:18:14;;;;;;;2.45;1.83;;;24.70;96.70;;;;;;4965822;28;20111;-64
2023/07/24 11:20:54;;;;;;;2.60;1.80;;;24.70;96.50;;;;;;4981027;28;20030;-66
2023/07/24 11:23:20;;;;;;;2.45;1.85;;;25.00;96.80;;;;;;4980135;28;20041;-63
2023/07/24 11:25:46;;;;;;;3.13;2.15;;;25.90;95.10;;;;;;4986612;28;20022;-63
2023/07/24 11:28:14;;;;;;;2.75;1.90;;;26.80;94.30;;;;;;4982708;28;20027;-65
2023/07/24 11:30:40;;;;;;;3.97;2.22;;;27.50;91.90;;;;;;4985161;28;20029;-64
2023/07/24 11:33:08;;;;;;;2.90;1.90;;;27.30;91.50;;;;;;4956459;28;20062;-66
2023/07/24 11:35:35;;;;;;;3.10;2.08;;;27.40;90.90;;;;;;4981318;28;20033;-64
2023/07/24 11:38:03;;;;;;;2.92;2.00;;;27.20;90.10;;;;;;4986547;28;20030;-63
2023/07/24 11:40:40;;;;;;;4.93;2.38;;;27.00;90.90;;;;;;4986713;28;20172;-64
2023/07/24 11:43:15;;;;;;;6.13;3.70;;;26.20;90.90;;;;;;4988946;28;20097;-64
2023/07/24 11:45:45;;;;;;;7.20;2.55;;;25.40;97.40;;;;;;4990528;28;20022;-64
2023/07/24 11:48:11;;;;;;;4.82;1.77;;;24.60;99.90;;;;;;4965453;28;20059;-64
2023/07/24 11:51:03;;;;;;;3.45;2.15;;;24.20;99.90;;;;;;4985587;28;20026;-65
2023/07/24 11:53:31;;;;;;;4.38;2.42;;;24.10;99.90;;;;;;4984335;28;20046;-63
2023/07/24 11:55:59;;;;;;;5.50;2.17;;;24.10;99.90;;;;;;4984791;28;20118;-65
2023/07/24 11:58:28;;;;;;;2.90;1.98;;;23.90;99.90;;;;;;4961554;28;20042;-65
2023/07/24 12:00:55;;;;;;;5.03;2.45;;;23.70;99.90;;;;;;4988887;28;20479;-63
2023/07/24 12:03:30;;;;;;;4.63;2.20;;;23.90;99.90;;;;;;4984864;28;20022;-64
2023/07/24 12:05:56;;;;;;;2.75;1.63;;;24.10;99.80;;;;;;4980930;28;20027;-63
2023/07/24 12:08:30;;;;;;;2.60;1.70;;;24.70;99.90;;;;;;4982850;28;20030;-63
2023/07/24 12:10:56;;;;;;;3.80;2.20;;;25.00;97.30;;;;;;4977466;28;20097;-63
2023/07/24 12:13:22;;;;;;;5.88;2.45;;;25.10;97.50;;;;;;4986241;28;20484;-64
2023/07/24 12:15:48;;;;;;;3.40;2.38;;;25.40;98.20;;;;;;4985620;28;20074;-65
2023/07/24 12:18:14;;;;;;;3.78;1.20;;;25.50;97.20;;;;;;4963554;28;20027;-64
2023/07/24 12:20:40;;;;;;;1.70;1.13;;;24.80;98.20;;;;;;4996124;28;20399;-64
2023/07/24 12:23:06;;;;;;;3.08;1.00;;;24.30;99.60;;;;;;4986306;28;20022;-64
2023/07/24 12:25:31;;;;;;;2.33;0.88;;;23.70;99.90;;;;;;4986880;28;22146;-63
2023/07/24 12:27:57;;;;;;;2.97;1.00;;;22.70;99.90;;;;;;4984484;28;20030;-64
2023/07/24 12:30:23;;;;;;;1.98;1.08;;;22.20;99.90;;;;;;4986933;28;20030;-63
2023/07/24 12:32:48;;;;;;;2.05;1.15;;;21.80;99.90;;;;;;4993093;28;20054;-62
2023/07/24 12:35:16;;;;;;;6.00;1.20;;;21.90;99.90;;;;;;4987833;28;20084;-66
2023/07/24 12:37:42;;;;;;;2.75;1.13;;;22.20;99.90;;;;;;4988507;28;20109;-64
2023/07/24 12:40:08;;;;;;;3.25;1.40;;;22.30;99.90;;;;;;4985878;28;20161;-64
2023/07/24 12:42:34;;;;;;;1.98;1.10;;;22.10;99.90;;;;;;4988405;28;20578;-64